Time,TemperatureF,DewpointF,PressureIn,WindDirection,WindDirectionDegrees,WindSpeedMPH,WindSpeedGustMPH,Humidity,HourlyPrecipIn,Conditions,Clouds,dailyrainin,SoftwareType,DateUTC
2013-05-11 00:05:00,76.4,72.9,30.05,SSW,203,0.0,0.0,89,0.00,,,0.00,Wunderground v.1.15,2013-05-11 04:05:00,
2013-05-11 00:10:00,76.3,72.8,30.05,SSW,203,0.0,0.0,89,0.00,,,0.00,Wunderground v.1.15,2013-05-11 04:10:00,
2013-05-11 00:15:00,76.2,72.7,30.05,SSW,203,0.0,0.0,89,0.00,,,0.00,Wunderground v.1.15,2013-05-11 04:15:00,
2013-05-11 00:20:00,76.0,72.5,30.06,SSW,203,0.0,0.0,89,0.00,,,0.00,Wunderground v.1.15,2013-05-11 04:20:00,
2013-05-11 00:25:00,76.0,72.5,30.06,SSW,203,0.0,0.0,89,0.00,,,0.00,Wunderground v.1.15,2013-05-11 04:25:00,
2013-05-11 00:30:00,75.8,72.3,30.06,SSW,203,0.0,0.0,89,0.00,,,0.00,Wunderground v.1.15,2013-05-11 04:30:00,
2013-05-11 00:35:00,75.7,72.2,30.06,SSW,203,0.0,0.0,89,0.00,,,0.00,Wunderground v.1.15,2013-05-11 04:35:00,
2013-05-11 00:40:00,75.6,72.1,30.05,SSW,203,0.0,0.0,89,0.00,,,0.00,Wunderground v.1.15,2013-05-11 04:40:00,
2013-05-11 00:45:00,75.5,72.4,30.05,SSW,203,0.0,0.0,90,0.00,,,0.00,Wunderground v.1.15,2013-05-11 04:45:00,
2013-05-11 00:50:00,75.5,72.0,30.05,SSW,203,0.0,0.0,89,0.00,,,0.00,Wunderground v.1.15,2013-05-11 04:50:00,
2013-05-11 00:55:00,75.4,71.9,30.05,SSW,203,0.0,0.0,89,0.00,,,0.00,Wunderground v.1.15,2013-05-11 04:55:00,
2013-05-11 01:05:00,75.3,71.8,30.05,SSW,203,0.0,0.0,89,0.00,,,0.00,Wunderground v.1.15,2013-05-11 05:05:00,
2013-05-11 01:10:00,75.2,71.7,30.05,SSW,203,0.0,0.0,89,0.00,,,0.00,Wunderground v.1.15,2013-05-11 05:10:00,
2013-05-11 01:20:00,75.1,72.0,30.04,SSW,203,0.0,0.0,90,0.00,,,0.00,Wunderground v.1.15,2013-05-11 05:20:00,
2013-05-11 01:25:00,75.0,71.9,30.04,SSW,203,0.0,0.0,90,0.00,,,0.00,Wunderground v.1.15,2013-05-11 05:25:00,
2013-05-11 01:30:00,74.9,71.8,30.04,SSW,203,0.0,0.0,90,0.00,,,0.00,Wunderground v.1.15,2013-05-11 05:30:00,
2013-05-11 01:40:00,74.7,71.6,30.04,SSW,203,0.0,0.0,90,0.00,,,0.00,Wunderground v.1.15,2013-05-11 05:40:00,
2013-05-11 01:45:00,74.6,71.5,30.04,SSW,203,0.0,0.0,90,0.00,,,0.00,Wunderground v.1.15,2013-05-11 05:45:00,
2013-05-11 01:50:00,74.5,71.4,30.03,SSW,203,0.0,0.0,90,0.00,,,0.00,Wunderground v.1.15,2013-05-11 05:50:00,
2013-05-11 01:55:00,74.4,71.3,30.03,SSW,203,0.0,0.0,90,0.00,,,0.00,Wunderground v.1.15,2013-05-11 05:55:00,
2013-05-11 02:00:00,74.4,71.3,30.03,SSW,203,0.0,0.0,90,0.00,,,0.00,Wunderground v.1.15,2013-05-11 06:00:00,
2013-05-11 02:05:00,74.3,71.2,30.03,SSW,203,0.0,0.0,90,0.00,,,0.00,Wunderground v.1.15,2013-05-11 06:05:00,
2013-05-11 02:15:00,74.2,71.1,30.03,SSW,203,0.0,0.0,90,0.00,,,0.00,Wunderground v.1.15,2013-05-11 06:15:00,
2013-05-11 02:20:00,74.0,70.9,30.04,SSW,203,0.0,0.0,90,0.00,,,0.00,Wunderground v.1.15,2013-05-11 06:20:00,
2013-05-11 02:30:00,74.0,70.9,30.04,SSW,203,0.0,0.0,90,0.00,,,0.00,Wunderground v.1.15,2013-05-11 06:30:00,
2013-05-11 02:40:00,74.2,71.1,30.04,SSW,203,0.0,0.0,90,0.00,,,0.00,Wunderground v.1.15,2013-05-11 06:40:00,
2013-05-11 02:45:00,74.1,71.0,30.04,SSW,203,0.0,0.0,90,0.00,,,0.00,Wunderground v.1.15,2013-05-11 06:45:00,
2013-05-11 02:55:00,73.9,70.8,30.03,SSW,203,0.0,0.0,90,0.00,,,0.00,Wunderground v.1.15,2013-05-11 06:55:00,
2013-05-11 03:05:00,73.8,70.7,30.03,SSW,203,0.0,0.0,90,0.00,,,0.00,Wunderground v.1.15,2013-05-11 07:05:00,
2013-05-11 03:10:00,73.7,70.6,30.03,SSW,203,0.0,0.0,90,0.00,,,0.00,Wunderground v.1.15,2013-05-11 07:10:00,
2013-05-11 03:20:00,73.7,70.9,30.03,SSW,203,0.0,0.0,91,0.00,,,0.00,Wunderground v.1.15,2013-05-11 07:20:00,
2013-05-11 03:25:00,73.6,70.8,30.02,SSW,203,0.0,0.0,91,0.00,,,0.00,Wunderground v.1.15,2013-05-11 07:25:00,
2013-05-11 03:35:00,73.6,70.8,30.01,SSW,203,0.0,0.0,91,0.00,,,0.00,Wunderground v.1.15,2013-05-11 07:35:00,
2013-05-11 03:40:00,73.6,70.8,30.01,SSW,203,0.0,0.0,91,0.00,,,0.00,Wunderground v.1.15,2013-05-11 07:40:00,
2013-05-11 03:45:00,73.7,70.9,30.01,SSW,203,0.0,0.0,91,0.00,,,0.00,Wunderground v.1.15,2013-05-11 07:45:00,
2013-05-11 03:50:00,73.8,71.0,30.00,SSW,203,0.0,0.0,91,0.00,,,0.00,Wunderground v.1.15,2013-05-11 07:50:00,
2013-05-11 04:00:00,73.9,71.1,30.00,SSW,203,0.0,0.0,91,0.00,,,0.00,Wunderground v.1.15,2013-05-11 08:00:00,
2013-05-11 04:05:00,73.9,71.1,30.00,SSW,203,0.0,0.0,91,0.00,,,0.00,Wunderground v.1.15,2013-05-11 08:05:00,
2013-05-11 04:15:00,73.8,71.0,30.00,SSW,203,0.0,0.0,91,0.00,,,0.00,Wunderground v.1.15,2013-05-11 08:15:00,
2013-05-11 04:25:00,73.8,71.0,29.99,SSW,203,0.0,0.0,91,0.00,,,0.00,Wunderground v.1.15,2013-05-11 08:25:00,
2013-05-11 04:30:00,73.8,71.0,30.00,SSW,203,0.0,0.0,91,0.00,,,0.00,Wunderground v.1.15,2013-05-11 08:30:00,
2013-05-11 04:40:00,73.7,70.9,30.00,SSW,203,0.0,0.0,91,0.00,,,0.00,Wunderground v.1.15,2013-05-11 08:40:00,
2013-05-11 04:45:00,73.7,70.9,30.00,SSW,201,0.0,0.0,91,0.00,,,0.00,Wunderground v.1.15,2013-05-11 08:45:00,
2013-05-11 04:50:00,73.7,70.9,30.00,SSW,201,0.0,0.0,91,0.00,,,0.00,Wunderground v.1.15,2013-05-11 08:50:00,
2013-05-11 05:00:00,73.7,70.9,30.00,SSW,201,0.0,0.0,91,0.00,,,0.00,Wunderground v.1.15,2013-05-11 09:00:00,
2013-05-11 05:05:00,73.8,71.0,30.00,SSW,201,0.0,0.0,91,0.00,,,0.00,Wunderground v.1.15,2013-05-11 09:05:00,
2013-05-11 05:10:00,73.8,71.0,30.00,SSW,201,0.0,0.0,91,0.00,,,0.00,Wunderground v.1.15,2013-05-11 09:10:00,
2013-05-11 05:20:00,73.9,71.1,30.01,SSW,201,0.0,0.0,91,0.00,,,0.00,Wunderground v.1.15,2013-05-11 09:20:00,
2013-05-11 05:25:00,73.9,71.1,30.01,SSW,201,0.0,0.0,91,0.00,,,0.00,Wunderground v.1.15,2013-05-11 09:25:00,
2013-05-11 05:35:00,73.8,71.0,30.00,SSW,201,0.0,0.0,91,0.00,,,0.00,Wunderground v.1.15,2013-05-11 09:35:00,
2013-05-11 05:40:00,73.8,71.0,30.00,SSW,201,0.0,0.0,91,0.00,,,0.00,Wunderground v.1.15,2013-05-11 09:40:00,
2013-05-11 05:45:00,73.8,71.0,30.01,SSW,201,0.0,0.0,91,0.00,,,0.00,Wunderground v.1.15,2013-05-11 09:45:00,
2013-05-11 05:50:00,73.8,71.0,30.01,SSW,201,0.0,0.0,91,0.00,,,0.00,Wunderground v.1.15,2013-05-11 09:50:00,
2013-05-11 06:00:00,73.7,70.9,30.01,SSW,201,0.0,0.0,91,0.00,,,0.00,Wunderground v.1.15,2013-05-11 10:00:00,
2013-05-11 06:05:00,73.6,70.8,30.01,SSW,201,0.0,0.0,91,0.00,,,0.00,Wunderground v.1.15,2013-05-11 10:05:00,
2013-05-11 06:10:00,73.6,70.8,30.01,SSW,201,0.0,0.0,91,0.00,,,0.00,Wunderground v.1.15,2013-05-11 10:10:00,
2013-05-11 06:15:00,73.5,70.7,30.01,SSW,201,0.0,0.0,91,0.00,,,0.00,Wunderground v.1.15,2013-05-11 10:15:00,
2013-05-11 06:20:00,73.5,70.7,30.01,SSW,201,0.0,0.0,91,0.00,,,0.00,Wunderground v.1.15,2013-05-11 10:20:00,
2013-05-11 06:30:00,73.5,70.7,30.01,South,183,0.0,3.0,91,0.00,,,0.00,Wunderground v.1.15,2013-05-11 10:30:00,
2013-05-11 06:35:00,73.4,70.6,30.02,South,183,0.0,3.0,91,0.00,,,0.00,Wunderground v.1.15,2013-05-11 10:35:00,
2013-05-11 06:40:00,73.4,70.6,30.02,South,183,0.0,0.0,91,0.00,,,0.00,Wunderground v.1.15,2013-05-11 10:40:00,
2013-05-11 06:45:00,73.3,70.5,30.02,South,183,0.0,0.0,91,0.00,,,0.00,Wunderground v.1.15,2013-05-11 10:45:00,
2013-05-11 06:50:00,73.3,70.5,30.02,SSE,163,0.0,0.0,91,0.00,,,0.00,Wunderground v.1.15,2013-05-11 10:50:00,
2013-05-11 06:55:00,73.4,70.6,30.02,SSE,163,0.0,0.0,91,0.00,,,0.00,Wunderground v.1.15,2013-05-11 10:55:00,
2013-05-11 07:05:00,73.3,70.5,30.02,SSE,163,0.0,0.0,91,0.00,,,0.00,Wunderground v.1.15,2013-05-11 11:05:00,
2013-05-11 07:10:00,73.4,70.6,30.02,SSE,163,1.0,1.0,91,0.00,,,0.00,Wunderground v.1.15,2013-05-11 11:10:00,
2013-05-11 07:15:00,73.4,70.6,30.02,SSE,163,0.0,1.0,91,0.00,,,0.00,Wunderground v.1.15,2013-05-11 11:15:00,
2013-05-11 07:20:00,73.5,70.7,30.03,SSE,163,0.0,0.0,91,0.00,,,0.00,Wunderground v.1.15,2013-05-11 11:20:00,
2013-05-11 07:25:00,73.5,70.7,30.03,SSE,163,0.0,0.0,91,0.00,,,0.00,Wunderground v.1.15,2013-05-11 11:25:00,
2013-05-11 07:35:00,73.6,70.8,30.03,SSE,163,0.0,0.0,91,0.00,,,0.00,Wunderground v.1.15,2013-05-11 11:35:00,
2013-05-11 07:40:00,73.7,70.9,30.03,SSE,163,0.0,0.0,91,0.00,,,0.00,Wunderground v.1.15,2013-05-11 11:40:00,
2013-05-11 07:45:00,73.7,70.9,30.03,SSE,163,0.0,0.0,91,0.00,,,0.00,Wunderground v.1.15,2013-05-11 11:45:00,
2013-05-11 07:50:00,73.8,71.0,30.03,SSE,163,0.0,0.0,91,0.00,,,0.00,Wunderground v.1.15,2013-05-11 11:50:00,
2013-05-11 07:55:00,73.8,71.0,30.03,SSE,163,0.0,0.0,91,0.00,,,0.00,Wunderground v.1.15,2013-05-11 11:55:00,
2013-05-11 08:00:00,73.9,71.1,30.03,SSE,163,0.0,0.0,91,0.00,,,0.00,Wunderground v.1.15,2013-05-11 12:00:00,
2013-05-11 08:10:00,74.1,71.3,30.03,SSE,163,0.0,0.0,91,0.00,,,0.00,Wunderground v.1.15,2013-05-11 12:10:00,
2013-05-11 08:15:00,74.2,71.4,30.03,SSE,162,0.0,3.0,91,0.00,,,0.00,Wunderground v.1.15,2013-05-11 12:15:00,
2013-05-11 08:20:00,74.4,71.6,30.03,SSE,162,0.0,0.0,91,0.00,,,0.00,Wunderground v.1.15,2013-05-11 12:20:00,
2013-05-11 08:25:00,74.6,71.8,30.03,SSE,162,0.0,0.0,91,0.00,,,0.00,Wunderground v.1.15,2013-05-11 12:25:00,
2013-05-11 08:30:00,74.7,71.9,30.03,SSE,162,0.0,0.0,91,0.00,,,0.00,Wunderground v.1.15,2013-05-11 12:30:00,
2013-05-11 08:40:00,75.4,72.6,30.03,ESE,123,0.0,0.0,91,0.00,,,0.00,Wunderground v.1.15,2013-05-11 12:40:00,
2013-05-11 08:45:00,75.5,72.7,30.03,SSE,147,0.0,0.0,91,0.00,,,0.00,Wunderground v.1.15,2013-05-11 12:45:00,
2013-05-11 08:55:00,75.8,73.0,30.03,SSE,148,1.0,1.0,91,0.00,,,0.00,Wunderground v.1.15,2013-05-11 12:55:00,
2013-05-11 09:00:00,76.0,73.2,30.03,SSE,148,1.0,1.0,91,0.00,,,0.00,Wunderground v.1.15,2013-05-11 13:00:00,
2013-05-11 09:05:00,76.3,73.5,30.03,SE,134,1.0,1.0,91,0.00,,,0.00,Wunderground v.1.15,2013-05-11 13:05:00,
2013-05-11 09:15:00,76.8,73.6,30.03,SSE,151,1.0,3.0,90,0.00,,,0.00,Wunderground v.1.15,2013-05-11 13:15:00,
2013-05-11 09:20:00,77.0,73.8,30.03,SSE,151,1.0,1.0,90,0.00,,,0.00,Wunderground v.1.15,2013-05-11 13:20:00,
2013-05-11 09:25:00,77.3,74.1,30.04,SSW,205,1.0,3.0,90,0.00,,,0.00,Wunderground v.1.15,2013-05-11 13:25:00,
2013-05-11 09:30:00,77.8,74.3,30.04,SSE,166,2.0,2.0,89,0.00,,,0.00,Wunderground v.1.15,2013-05-11 13:30:00,
2013-05-11 09:40:00,78.4,74.5,30.05,South,189,3.0,3.0,88,0.00,,,0.00,Wunderground v.1.15,2013-05-11 13:40:00,
2013-05-11 09:45:00,78.9,74.7,30.05,South,171,3.0,7.0,87,0.00,,,0.00,Wunderground v.1.15,2013-05-11 13:45:00,
2013-05-11 09:50:00,79.1,74.9,30.05,South,172,4.0,7.0,87,0.00,,,0.00,Wunderground v.1.15,2013-05-11 13:50:00,
2013-05-11 09:55:00,79.1,74.9,30.05,South,171,4.0,7.0,87,0.00,,,0.00,Wunderground v.1.15,2013-05-11 13:55:00,
2013-05-11 10:05:00,79.3,74.7,30.05,South,186,4.0,7.0,86,0.00,,,0.00,Wunderground v.1.15,2013-05-11 14:05:00,
2013-05-11 10:10:00,79.4,74.8,30.05,South,189,5.0,8.0,86,0.00,,,0.00,Wunderground v.1.15,2013-05-11 14:10:00,
2013-05-11 10:20:00,79.7,74.4,30.04,SSE,162,5.0,5.0,84,0.00,,,0.00,Wunderground v.1.15,2013-05-11 14:20:00,
2013-05-11 10:25:00,79.7,74.4,30.04,SSW,211,5.0,13.0,84,0.00,,,0.00,Wunderground v.1.15,2013-05-11 14:25:00,
2013-05-11 10:30:00,80.0,74.7,30.04,SW,220,6.0,6.0,84,0.00,,,0.00,Wunderground v.1.15,2013-05-11 14:30:00,
2013-05-11 10:40:00,80.5,74.5,30.05,SW,219,5.0,8.0,82,0.00,,,0.00,Wunderground v.1.15,2013-05-11 14:40:00,
2013-05-11 10:45:00,80.9,74.9,30.05,SSW,196,6.0,8.0,82,0.00,,,0.00,Wunderground v.1.15,2013-05-11 14:45:00,
2013-05-11 10:50:00,81.1,74.7,30.05,SSW,203,6.0,10.0,81,0.00,,,0.00,Wunderground v.1.15,2013-05-11 14:50:00,
2013-05-11 11:00:00,81.6,74.5,30.04,SE,143,6.0,6.0,79,0.00,,,0.00,Wunderground v.1.15,2013-05-11 15:00:00,
2013-05-11 11:05:00,81.7,74.9,30.04,South,178,6.0,6.0,80,0.00,,,0.00,Wunderground v.1.15,2013-05-11 15:05:00,
2013-05-11 11:10:00,81.7,74.9,30.04,South,169,7.0,7.0,80,0.00,,,0.00,Wunderground v.1.15,2013-05-11 15:10:00,
2013-05-11 11:20:00,81.8,75.0,30.04,SSE,159,6.0,7.0,80,0.00,,,0.00,Wunderground v.1.15,2013-05-11 15:20:00,
2013-05-11 11:25:00,82.0,75.2,30.04,South,177,6.0,7.0,80,0.00,,,0.00,Wunderground v.1.15,2013-05-11 15:25:00,
2013-05-11 11:35:00,82.4,75.2,30.04,SSE,159,6.0,6.0,79,0.00,,,0.00,Wunderground v.1.15,2013-05-11 15:35:00,
2013-05-11 11:40:00,82.1,75.3,30.04,SSW,204,7.0,7.0,80,0.00,,,0.00,Wunderground v.1.15,2013-05-11 15:40:00,
2013-05-11 11:50:00,82.6,75.0,30.03,SSW,193,6.0,6.0,78,0.00,,,0.00,Wunderground v.1.15,2013-05-11 15:50:00,
2013-05-11 11:55:00,82.8,74.8,30.03,South,180,6.0,6.0,77,0.00,,,0.00,Wunderground v.1.15,2013-05-11 15:55:00,
2013-05-11 12:05:00,83.0,75.4,30.03,South,187,6.0,6.0,78,0.00,,,0.00,Wunderground v.1.15,2013-05-11 16:05:00,
2013-05-11 12:10:00,82.7,75.1,30.03,SSE,153,7.0,7.0,78,0.00,,,0.00,Wunderground v.1.15,2013-05-11 16:10:00,
2013-05-11 12:20:00,82.9,74.9,30.04,SSE,168,7.0,7.0,77,0.00,,,0.00,Wunderground v.1.15,2013-05-11 16:20:00,
2013-05-11 12:25:00,83.3,75.7,30.04,SE,145,6.0,7.0,78,0.00,,,0.00,Wunderground v.1.15,2013-05-11 16:25:00,
2013-05-11 12:30:00,83.7,76.5,30.04,SSE,161,5.0,6.0,79,0.00,,,0.00,Wunderground v.1.15,2013-05-11 16:30:00,
2013-05-11 12:40:00,83.3,74.9,30.04,SSE,165,7.0,8.0,76,0.00,,,0.00,Wunderground v.1.15,2013-05-11 16:40:00,
2013-05-11 12:45:00,83.3,73.7,30.03,SW,234,7.0,8.0,73,0.00,,,0.00,Wunderground v.1.15,2013-05-11 16:45:00,
2013-05-11 12:50:00,83.5,74.7,30.04,WSW,255,7.0,7.0,75,0.00,,,0.00,Wunderground v.1.15,2013-05-11 16:50:00,
2013-05-11 12:55:00,83.8,75.0,30.03,SSW,192,6.0,8.0,75,0.00,,,0.00,Wunderground v.1.15,2013-05-11 16:55:00,
2013-05-11 13:05:00,84.0,74.0,30.03,SW,216,7.0,7.0,72,0.00,,,0.00,Wunderground v.1.15,2013-05-11 17:05:00,
2013-05-11 13:10:00,84.4,74.4,30.03,SSW,194,7.0,11.0,72,0.00,,,0.00,Wunderground v.1.15,2013-05-11 17:10:00,
2013-05-11 13:15:00,84.0,75.2,30.03,SW,215,7.0,11.0,75,0.00,,,0.00,Wunderground v.1.15,2013-05-11 17:15:00,
2013-05-11 13:25:00,83.9,73.5,30.03,SW,233,6.0,7.0,71,0.00,,,0.00,Wunderground v.1.15,2013-05-11 17:25:00,
2013-05-11 13:30:00,84.0,73.2,30.02,SSW,211,7.0,7.0,70,0.00,,,0.00,Wunderground v.1.15,2013-05-11 17:30:00,
2013-05-11 13:35:00,84.2,73.8,30.02,WSW,239,8.0,13.0,71,0.00,,,0.00,Wunderground v.1.15,2013-05-11 17:35:00,
2013-05-11 13:45:00,84.3,73.9,30.03,SSE,153,8.0,9.0,71,0.00,,,0.00,Wunderground v.1.15,2013-05-11 17:45:00,
2013-05-11 13:50:00,84.5,73.6,30.03,SSE,163,7.0,8.0,70,0.00,,,0.00,Wunderground v.1.15,2013-05-11 17:50:00,
2013-05-11 14:00:00,84.8,74.8,30.03,South,190,6.0,6.0,72,0.00,,,0.00,Wunderground v.1.15,2013-05-11 18:00:00,
2013-05-11 14:05:00,84.6,75.0,30.02,SE,141,6.0,12.0,73,0.00,,,0.00,Wunderground v.1.15,2013-05-11 18:05:00,
2013-05-11 14:15:00,84.5,75.3,30.02,SSE,165,6.0,7.0,74,0.00,,,0.00,Wunderground v.1.15,2013-05-11 18:15:00,
2013-05-11 14:20:00,84.6,73.7,30.02,WSW,246,6.0,6.0,70,0.00,,,0.00,Wunderground v.1.15,2013-05-11 18:20:00,
2013-05-11 14:25:00,84.7,75.1,30.02,SW,221,6.0,10.0,73,0.00,,,0.00,Wunderground v.1.15,2013-05-11 18:25:00,
2013-05-11 14:35:00,84.6,74.6,30.01,South,180,7.0,10.0,72,0.00,,,0.00,Wunderground v.1.15,2013-05-11 18:35:00,
2013-05-11 14:40:00,84.8,75.6,30.01,SSE,165,6.0,6.0,74,0.00,,,0.00,Wunderground v.1.15,2013-05-11 18:40:00,
2013-05-11 14:50:00,85.2,76.0,30.01,SSE,150,6.0,9.0,74,0.00,,,0.00,Wunderground v.1.15,2013-05-11 18:50:00,
2013-05-11 14:55:00,84.3,75.9,30.01,SW,218,7.0,10.0,76,0.00,,,0.00,Wunderground v.1.15,2013-05-11 18:55:00,
2013-05-11 15:00:00,84.2,75.8,30.01,SSE,161,7.0,7.0,76,0.00,,,0.00,Wunderground v.1.15,2013-05-11 19:00:00,
2013-05-11 15:05:00,84.8,76.4,30.01,South,184,6.0,7.0,76,0.00,,,0.00,Wunderground v.1.15,2013-05-11 19:05:00,
2013-05-11 15:15:00,84.2,76.6,30.01,SSW,207,7.0,10.0,78,0.00,,,0.00,Wunderground v.1.15,2013-05-11 19:15:00,
2013-05-11 15:20:00,84.3,76.3,30.01,South,174,7.0,7.0,77,0.00,,,0.00,Wunderground v.1.15,2013-05-11 19:20:00,
2013-05-11 15:30:00,84.0,75.6,30.01,SSW,200,6.0,13.0,76,0.00,,,0.00,Wunderground v.1.15,2013-05-11 19:30:00,
2013-05-11 15:35:00,83.5,75.9,30.01,SW,221,7.0,13.0,78,0.00,,,0.00,Wunderground v.1.15,2013-05-11 19:35:00,
2013-05-11 15:40:00,83.4,76.2,30.01,South,175,7.0,7.0,79,0.00,,,0.00,Wunderground v.1.15,2013-05-11 19:40:00,
2013-05-11 15:50:00,82.8,76.0,30.01,SSW,201,8.0,8.0,80,0.00,,,0.00,Wunderground v.1.15,2013-05-11 19:50:00,
2013-05-11 15:55:00,82.9,75.7,30.01,SSW,200,7.0,8.0,79,0.00,,,0.00,Wunderground v.1.15,2013-05-11 19:55:00,
2013-05-11 16:05:00,82.8,76.0,30.01,SW,214,7.0,7.0,80,0.00,,,0.00,Wunderground v.1.15,2013-05-11 20:05:00,
2013-05-11 16:10:00,82.8,76.4,30.01,SSW,205,7.0,7.0,81,0.00,,,0.00,Wunderground v.1.15,2013-05-11 20:10:00,
2013-05-11 16:15:00,82.8,76.7,30.00,WSW,252,6.0,7.0,82,0.00,,,0.00,Wunderground v.1.15,2013-05-11 20:15:00,
2013-05-11 16:25:00,83.0,76.9,30.00,SSE,167,6.0,6.0,82,0.00,,,0.00,Wunderground v.1.15,2013-05-11 20:25:00,
2013-05-11 16:30:00,82.7,76.3,30.00,SSW,212,7.0,7.0,81,0.00,,,0.00,Wunderground v.1.15,2013-05-11 20:30:00,
2013-05-11 16:40:00,82.1,76.1,30.00,SSW,213,8.0,8.0,82,0.00,,,0.00,Wunderground v.1.15,2013-05-11 20:40:00,
2013-05-11 16:45:00,81.8,76.1,30.00,SSW,200,8.0,8.0,83,0.00,,,0.00,Wunderground v.1.15,2013-05-11 20:45:00,
2013-05-11 16:50:00,82.0,76.3,30.00,SW,233,8.0,8.0,83,0.00,,,0.00,Wunderground v.1.15,2013-05-11 20:50:00,
2013-05-11 17:00:00,82.0,76.3,30.00,SSW,209,6.0,6.0,83,0.00,,,0.00,Wunderground v.1.15,2013-05-11 21:00:00,
2013-05-11 17:05:00,81.8,76.1,30.01,SSW,198,7.0,10.0,83,0.00,,,0.00,Wunderground v.1.15,2013-05-11 21:05:00,
2013-05-11 17:15:00,81.9,76.6,30.01,SW,226,6.0,7.0,84,0.00,,,0.00,Wunderground v.1.15,2013-05-11 21:15:00,
2013-05-11 17:20:00,81.8,76.1,30.01,South,186,6.0,9.0,83,0.00,,,0.00,Wunderground v.1.15,2013-05-11 21:20:00,
2013-05-11 17:25:00,81.8,76.1,30.01,SSW,205,6.0,9.0,83,0.00,,,0.00,Wunderground v.1.15,2013-05-11 21:25:00,
2013-05-11 17:35:00,81.4,76.1,30.01,SSW,196,7.0,11.0,84,0.00,,,0.00,Wunderground v.1.15,2013-05-11 21:35:00,
2013-05-11 17:40:00,81.3,76.0,30.00,South,175,6.0,7.0,84,0.00,,,0.00,Wunderground v.1.15,2013-05-11 21:40:00,
2013-05-11 17:50:00,81.5,76.2,30.00,SW,217,6.0,6.0,84,0.00,,,0.00,Wunderground v.1.15,2013-05-11 21:50:00,
2013-05-11 17:55:00,81.5,76.2,30.00,SW,221,5.0,8.0,84,0.00,,,0.00,Wunderground v.1.15,2013-05-11 21:55:00,
2013-05-11 18:00:00,81.4,76.1,30.00,SW,223,5.0,5.0,84,0.00,,,0.00,Wunderground v.1.15,2013-05-11 22:00:00,
2013-05-11 18:05:00,81.3,76.0,30.00,SW,229,5.0,5.0,84,0.00,,,0.00,Wunderground v.1.15,2013-05-11 22:05:00,
2013-05-11 18:15:00,80.7,75.8,30.00,South,186,5.0,7.0,85,0.00,,,0.00,Wunderground v.1.15,2013-05-11 22:15:00,
2013-05-11 18:25:00,80.6,76.0,29.99,SW,231,5.0,9.0,86,0.00,,,0.00,Wunderground v.1.15,2013-05-11 22:25:00,
2013-05-11 18:30:00,80.4,75.8,29.99,SW,223,5.0,6.0,86,0.00,,,0.00,Wunderground v.1.15,2013-05-11 22:30:00,
2013-05-11 18:35:00,80.3,75.7,29.99,SW,236,5.0,6.0,86,0.00,,,0.00,Wunderground v.1.15,2013-05-11 22:35:00,
2013-05-11 18:45:00,80.2,75.6,29.99,SSW,192,4.0,4.0,86,0.00,,,0.00,Wunderground v.1.15,2013-05-11 22:45:00,
2013-05-11 18:50:00,80.2,75.6,29.99,SW,220,4.0,4.0,86,0.00,,,0.00,Wunderground v.1.15,2013-05-11 22:50:00,
2013-05-11 18:55:00,80.2,75.6,29.99,SW,232,3.0,4.0,86,0.00,,,0.00,Wunderground v.1.15,2013-05-11 22:55:00,
2013-05-11 19:05:00,80.2,75.6,29.99,SW,221,2.0,2.0,86,0.00,,,0.00,Wunderground v.1.15,2013-05-11 23:05:00,
2013-05-11 19:10:00,80.2,75.6,29.99,SW,216,3.0,3.0,86,0.00,,,0.00,Wunderground v.1.15,2013-05-11 23:10:00,
2013-05-11 19:15:00,80.2,75.6,30.00,SW,223,3.0,3.0,86,0.00,,,0.00,Wunderground v.1.15,2013-05-11 23:15:00,
2013-05-11 19:25:00,80.0,75.1,29.99,SW,235,3.0,3.0,85,0.00,,,0.00,Wunderground v.1.15,2013-05-11 23:25:00,
2013-05-11 19:30:00,80.1,75.5,29.99,WSW,252,2.0,2.0,86,0.00,,,0.00,Wunderground v.1.15,2013-05-11 23:30:00,
2013-05-11 19:40:00,79.8,74.9,29.99,SW,221,2.0,2.0,85,0.00,,,0.00,Wunderground v.1.15,2013-05-11 23:40:00,
2013-05-11 19:50:00,79.4,74.5,30.00,SW,225,2.0,2.0,85,0.00,,,0.00,Wunderground v.1.15,2013-05-11 23:50:00,
2013-05-11 19:55:00,79.4,74.5,30.01,SW,216,1.0,2.0,85,0.00,,,0.00,Wunderground v.1.15,2013-05-11 23:55:00,
2013-05-11 20:05:00,79.6,75.0,30.01,SW,216,1.0,1.0,86,0.00,,,0.00,Wunderground v.1.15,2013-05-12 00:05:00,
2013-05-11 20:10:00,79.6,75.0,30.01,WSW,246,1.0,1.0,86,0.00,,,0.00,Wunderground v.1.15,2013-05-12 00:10:00,
2013-05-11 20:20:00,79.4,75.2,30.01,WSW,244,1.0,1.0,87,0.00,,,0.00,Wunderground v.1.15,2013-05-12 00:20:00,
2013-05-11 20:25:00,79.3,75.1,30.02,WSW,244,1.0,3.0,87,0.00,,,0.00,Wunderground v.1.15,2013-05-12 00:25:00,
2013-05-11 20:30:00,79.1,74.9,30.01,SSE,150,0.0,0.0,87,0.00,,,0.00,Wunderground v.1.15,2013-05-12 00:30:00,
2013-05-11 20:35:00,79.0,74.8,30.01,SW,227,0.0,2.0,87,0.00,,,0.00,Wunderground v.1.15,2013-05-12 00:35:00,
2013-05-11 20:40:00,78.8,74.6,30.01,SW,233,0.0,0.0,87,0.00,,,0.00,Wunderground v.1.15,2013-05-12 00:40:00,
2013-05-11 20:50:00,78.7,74.5,30.02,SSW,202,0.0,0.0,87,0.00,,,0.00,Wunderground v.1.15,2013-05-12 00:50:00,
2013-05-11 20:55:00,78.6,74.4,30.01,SSW,202,0.0,0.0,87,0.00,,,0.00,Wunderground v.1.15,2013-05-12 00:55:00,
2013-05-11 21:05:00,78.5,74.3,30.02,SSW,202,0.0,0.0,87,0.00,,,0.00,Wunderground v.1.15,2013-05-12 01:05:00,
2013-05-11 21:10:00,78.4,74.5,30.02,SSW,202,0.0,0.0,88,0.00,,,0.00,Wunderground v.1.15,2013-05-12 01:10:00,
2013-05-11 21:15:00,78.3,74.5,30.01,SSW,202,0.0,0.0,88,0.00,,,0.00,Wunderground v.1.15,2013-05-12 01:15:00,
2013-05-11 21:25:00,78.2,74.0,30.01,SSW,202,0.0,0.0,87,0.00,,,0.00,Wunderground v.1.15,2013-05-12 01:25:00,
2013-05-11 21:30:00,78.1,73.9,30.02,SSW,202,0.0,0.0,87,0.00,,,0.00,Wunderground v.1.15,2013-05-12 01:30:00,
2013-05-11 21:35:00,78.0,74.2,30.02,SSW,202,0.0,0.0,88,0.00,,,0.00,Wunderground v.1.15,2013-05-12 01:35:00,
2013-05-11 21:45:00,77.9,74.1,30.02,SSW,202,0.0,0.0,88,0.00,,,0.00,Wunderground v.1.15,2013-05-12 01:45:00,
2013-05-11 21:50:00,77.9,74.1,30.02,SSW,202,0.0,0.0,88,0.00,,,0.00,Wunderground v.1.15,2013-05-12 01:50:00,
2013-05-11 22:00:00,77.8,74.0,30.02,SSW,202,0.0,0.0,88,0.00,,,0.00,Wunderground v.1.15,2013-05-12 02:00:00,
2013-05-11 22:05:00,77.7,73.9,30.02,SSW,202,0.0,0.0,88,0.00,,,0.00,Wunderground v.1.15,2013-05-12 02:05:00,
2013-05-11 22:15:00,77.6,73.8,30.02,SSW,202,0.0,0.0,88,0.00,,,0.00,Wunderground v.1.15,2013-05-12 02:15:00,
2013-05-11 22:20:00,77.5,73.7,30.02,SSW,202,0.0,0.0,88,0.00,,,0.00,Wunderground v.1.15,2013-05-12 02:20:00,
2013-05-11 22:25:00,77.5,73.7,30.03,SSW,202,0.0,0.0,88,0.00,,,0.00,Wunderground v.1.15,2013-05-12 02:25:00,
2013-05-11 22:30:00,77.4,73.6,30.03,SSW,202,0.0,0.0,88,0.00,,,0.00,Wunderground v.1.15,2013-05-12 02:30:00,
2013-05-11 22:40:00,77.2,73.4,30.03,SSW,202,0.0,0.0,88,0.00,,,0.00,Wunderground v.1.15,2013-05-12 02:40:00,
2013-05-11 22:50:00,77.1,73.3,30.03,SSW,202,0.0,0.0,88,0.00,,,0.00,Wunderground v.1.15,2013-05-12 02:50:00,
2013-05-11 23:00:00,77.0,73.5,30.03,SSW,202,0.0,0.0,89,0.00,,,0.00,Wunderground v.1.15,2013-05-12 03:00:00,
2013-05-11 23:05:00,76.9,73.4,30.03,SSW,202,0.0,0.0,89,0.00,,,0.00,Wunderground v.1.15,2013-05-12 03:05:00,
2013-05-11 23:15:00,76.7,73.2,30.03,SSW,202,0.0,0.0,89,0.00,,,0.00,Wunderground v.1.15,2013-05-12 03:15:00,
2013-05-11 23:25:00,76.5,73.0,30.03,SSW,202,0.0,0.0,89,0.00,,,0.00,Wunderground v.1.15,2013-05-12 03:25:00,
2013-05-11 23:30:00,76.4,72.9,30.02,SSW,202,0.0,0.0,89,0.00,,,0.00,Wunderground v.1.15,2013-05-12 03:30:00,
2013-05-11 23:40:00,76.2,72.7,30.03,SSW,202,0.0,0.0,89,0.00,,,0.00,Wunderground v.1.15,2013-05-12 03:40:00,
2013-05-11 23:50:00,76.0,72.5,30.03,SSW,202,0.0,0.0,89,0.00,,,0.00,Wunderground v.1.15,2013-05-12 03:50:00,